Mount Zion, IL (62549)

1:43 PM CDT on August 31, 2015 (GMT -0500)
Sandhill Dr. | | Change Station
CLOSE
Current Station
Personal Weather Station
Location: Decatur, IL
Elevation: 676 ft
Nearby Weather Stations

Elev 676 ft 39.82 °N, 88.92 °W | Updated 4 seconds ago

Overcast
Overcast
88.7 °F
Feels Like 121 °F
N
4.2
Wind Variable Wind from West
Gusts 6.0 mph

Today
High -- | Low -- °F
--% Chance of Precip.
Yesterday
High -- | Low -- °F
Precip. -- in
6:22 AM 7:28 PM
Waning Gibbous, 94% visible
Pressure 30.07 in
Visibility 10.0 miles
Clouds Scattered Clouds 2600 ft
Scattered Clouds 4800 ft
Heat Index 121 °F
Dew Point 88 °F
Humidity 96%
Rainfall 0.00 in
Snow Depth Not available.
UV 7 out of 12
Pollen 10.60 out of 12
Air Quality Not available.
Flu Activity Not available.
SPECI KDEC 311829Z VRB06KT 10SM SCT026 SCT048 29/22 A3007 RMK AO2 T02940222
Pressure 30.07 in
Visibility 10.0 miles
Clouds Scattered Clouds 2600 ft
Scattered Clouds 4800 ft
Heat Index 121 °F
Dew Point 88 °F
Humidity 96%
Rainfall 0.00 in
Snow Depth Not available.
UV 7 out of 12
Pollen 10.60 out of 12
Air Quality Not available.
Flu Activity Not available.
SPECI KDEC 311829Z VRB06KT 10SM SCT026 SCT048 29/22 A3007 RMK AO2 T02940222

10-Day Weather Forecast

×

Almanac

Astronomy

Aug. 31, 2015 Rise Set
Actual Time
Civil Twilight
Nautical Twilight
Astronomical Twilight
Moon
Length of Visible Light
Length of Day
Tomorrow will be .
, % of the Moon is Illuminated

Today's Extremes

State Highs State Lows

Community

WunderPhotos

Upload Photos

1,851,334 photos uploaded!

WunderBlogs® & News

Nearby

Air Quality

  Air Quality AQ Index Pollutant
Not available.

Snow Depth

Station Depth Elevation

Earthquake Activity

City Distance Mag. Time & Date
Minimum magnitude displayed is 2.5.

Coastal Water Temperatures

Place Temperature

Stations

Nearby Weather Stations

Station Location Temp. Windchill Dew Point Humidity Wind Precip. Elev Updated Type